Perth, New York
Current Conditions -  °F | °C
As of 8:15 PM on Saturday 25 Oct 2014 (Local Time) from KNY0 Reporting Station
Overcast Overcast  
Wind Chill: 53°   Ceiling: 4300
Heat Index: 53°   Visibility: 10mi
Dew Point: 47°   Wind: 8mph
Humidity: 78%   Direction: 280°W
Pressure: 29.55"   Gusts: 20mph
Location:  42.9741°N, 74.1271°W
Report Text: KNY0 260015Z AUTO 28007G17KT 10SM SCT033 BKN043 OVC080 12/08 A2955 RMK AO2 T01180081
Loading
Personal Weather Stations






























Interactive Weather Map
Tropical Storm Tracking
New forecast layout! Learn more

10-Day Weather Forecast

Advertisements
Track Severe Weather on mobile